createdAt,value
2022-08-05T10:47:32.941Z,28.45
2022-08-05T10:50:31.521Z,28.84
2022-08-05T10:52:58.518Z,28.98
2022-08-05T10:55:28.385Z,28.95
2022-08-05T10:58:11.994Z,27.85
2022-08-05T11:00:48.532Z,27.90
2022-08-05T11:03:27.092Z,27.66
2022-08-05T11:06:08.280Z,27.54
2022-08-05T11:08:39.111Z,27.65
2022-08-05T11:11:44.915Z,27.87
2022-08-05T11:14:49.493Z,28.14
2022-08-05T11:17:57.268Z,28.49
2022-08-05T11:20:41.743Z,29.10
2022-08-05T11:24:05.316Z,29.41
2022-08-05T11:26:43.432Z,29.66
2022-08-05T11:29:37.398Z,28.72
2022-08-05T11:32:28.609Z,28.06
2022-08-05T11:34:57.491Z,27.67
2022-08-05T11:38:29.747Z,27.83
2022-08-05T11:41:34.758Z,27.87
2022-08-05T11:44:05.846Z,28.10
2022-08-05T11:46:58.548Z,28.28
2022-08-05T11:49:27.812Z,28.50
2022-08-05T11:51:57.666Z,28.45
2022-08-05T11:54:33.971Z,28.54
2022-08-05T11:57:08.738Z,27.85
2022-08-05T11:59:52.986Z,27.96
2022-08-05T12:02:31.621Z,28.37
2022-08-05T12:05:07.617Z,28.27
2022-08-05T12:08:07.815Z,28.13
2022-08-05T12:10:45.472Z,28.27
2022-08-05T12:13:27.959Z,28.28
2022-08-05T12:16:14.934Z,28.29
2022-08-05T12:18:52.317Z,28.29
2022-08-05T12:21:23.798Z,28.53
2022-08-05T12:24:00.208Z,28.67
2022-08-05T12:26:36.280Z,28.45
2022-08-05T12:29:09.860Z,28.10
2022-08-05T12:31:50.116Z,28.17
2022-08-05T12:34:24.060Z,28.08
2022-08-05T12:36:55.794Z,28.23
2022-08-05T12:39:34.360Z,28.36
2022-08-05T12:42:14.641Z,28.14
2022-08-05T12:44:44.669Z,28.15
2022-08-05T12:47:13.850Z,28.34
2022-08-05T12:50:03.669Z,28.45
2022-08-05T12:52:42.027Z,28.51
2022-08-05T12:55:25.177Z,28.61
2022-08-05T12:58:48.441Z,28.22
2022-08-05T13:02:01.593Z,28.11
2022-08-05T13:03:42.183Z,27.98
2022-08-05T13:06:16.114Z,28.09
2022-08-05T13:08:51.524Z,28.16
2022-08-05T13:12:01.043Z,28.00
2022-08-05T13:14:36.134Z,28.13
2022-08-05T13:17:10.441Z,28.18
2022-08-05T13:19:40.370Z,28.15
2022-08-05T13:22:27.943Z,28.09
2022-08-05T13:25:00.294Z,28.10
2022-08-05T13:27:38.213Z,27.82
2022-08-05T13:30:34.510Z,27.35
2022-08-05T13:33:01.647Z,27.29
2022-08-05T13:35:43.163Z,27.43
2022-08-05T13:38:28.271Z,27.50
2022-08-05T13:41:03.298Z,27.55
2022-08-05T13:43:44.613Z,27.62
2022-08-05T13:46:43.631Z,27.38
2022-08-05T13:49:10.272Z,27.45
2022-08-05T13:51:45.852Z,27.58
2022-08-05T13:54:16.056Z,27.56
2022-08-05T13:56:50.996Z,27.65
2022-08-05T13:59:24.977Z,27.51
2022-08-05T14:01:56.428Z,27.09
2022-08-05T14:04:50.187Z,27.14
2022-08-05T14:07:25.791Z,27.26
2022-08-05T14:10:13.543Z,27.36
2022-08-05T14:12:48.600Z,27.43
2022-08-05T14:16:05.754Z,27.51
2022-08-05T14:18:13.137Z,27.48
2022-08-05T14:20:47.301Z,27.39
2022-08-05T14:23:24.816Z,27.40
2022-08-05T14:25:58.867Z,27.28
2022-08-05T14:28:28.829Z,26.66
2022-08-05T14:30:57.309Z,26.57
2022-08-05T14:33:27.178Z,26.47
2022-08-05T14:36:01.560Z,26.62
2022-08-05T14:38:34.056Z,26.44
2022-08-05T14:41:06.767Z,26.59
2022-08-05T14:43:53.885Z,26.66
2022-08-05T14:46:28.760Z,26.79
2022-08-05T14:49:06.608Z,26.67
2022-08-05T14:51:36.430Z,26.33
2022-08-05T14:54:25.925Z,26.27
2022-08-05T14:56:55.205Z,26.46
2022-08-05T14:59:23.473Z,26.35
2022-08-05T15:01:51.777Z,26.45
2022-08-05T15:04:23.688Z,26.53
2022-08-05T15:06:55.615Z,26.55
2022-08-05T15:09:51.841Z,26.43
2022-08-05T15:12:16.881Z,26.50
2022-08-05T15:14:50.182Z,26.54
2022-08-05T15:17:46.059Z,26.64
2022-08-05T15:20:18.355Z,26.65
2022-08-05T15:22:52.342Z,26.62
2022-08-05T15:25:51.263Z,26.40
2022-08-05T15:28:13.419Z,26.19
2022-08-05T15:30:43.678Z,26.17
2022-08-05T15:34:05.247Z,26.27
2022-08-05T15:36:04.244Z,25.90
2022-08-05T15:38:36.516Z,26.06
2022-08-05T15:41:22.430Z,26.04
2022-08-05T15:43:54.793Z,26.14
2022-08-05T15:46:26.489Z,26.09
2022-08-05T15:49:00.787Z,26.21
2022-08-05T15:52:10.344Z,26.27
2022-08-05T15:54:35.119Z,26.17
2022-08-05T15:57:07.635Z,26.14
2022-08-05T15:59:38.248Z,26.04
2022-08-05T16:02:09.415Z,25.62
2022-08-05T16:04:43.493Z,25.59
2022-08-05T16:07:13.672Z,25.57
2022-08-05T16:09:43.685Z,25.74
2022-08-05T16:12:21.749Z,25.80
2022-08-05T16:14:49.955Z,25.83
2022-08-05T16:17:18.124Z,25.86
2022-08-05T16:20:04.871Z,25.88
2022-08-05T16:22:36.505Z,25.67
2022-08-05T16:25:09.450Z,25.36
2022-08-05T16:27:46.939Z,25.33
2022-08-05T16:30:28.873Z,25.33
2022-08-05T16:32:58.025Z,25.52
2022-08-05T16:35:28.322Z,25.51
2022-08-05T16:38:15.213Z,25.43
2022-08-05T16:40:55.506Z,25.34
2022-08-05T16:43:31.546Z,25.33
2022-08-05T16:46:07.489Z,25.33
2022-08-05T16:48:40.834Z,25.30
2022-08-05T16:51:10.823Z,25.28
2022-08-05T16:54:03.947Z,25.20
2022-08-05T16:56:33.759Z,25.15
2022-08-05T16:59:07.523Z,25.09
2022-08-05T17:01:54.898Z,25.06
2022-08-05T17:04:26.680Z,25.01
2022-08-05T17:07:11.491Z,25.00
2022-08-05T17:09:58.416Z,24.98
2022-08-05T17:12:51.191Z,24.84
2022-08-05T17:15:19.702Z,24.51
2022-08-05T17:17:55.070Z,24.40
2022-08-05T17:20:25.068Z,24.35
2022-08-05T17:22:55.675Z,24.31
2022-08-05T17:25:39.576Z,24.29
2022-08-05T17:28:09.152Z,24.23
2022-08-05T17:30:50.799Z,24.28
2022-08-05T17:33:20.573Z,24.18
2022-08-05T17:36:07.770Z,24.18
2022-08-05T17:38:37.861Z,24.19
2022-08-05T17:41:11.678Z,24.04
2022-08-05T17:44:01.107Z,24.04
2022-08-05T17:46:31.730Z,24.01
2022-08-05T17:49:00.132Z,24.05
2022-08-05T17:51:28.825Z,24.08
2022-08-05T17:54:08.879Z,23.98
2022-08-05T17:56:39.431Z,24.01
2022-08-05T17:59:07.615Z,24.02
2022-08-05T18:01:48.513Z,23.96
2022-08-05T18:04:21.299Z,23.99
2022-08-05T18:06:55.301Z,23.98
2022-08-05T18:09:58.703Z,23.97
2022-08-05T18:12:23.755Z,23.93
2022-08-05T18:14:52.659Z,23.83
2022-08-05T18:17:59.229Z,23.84
2022-08-05T18:20:14.990Z,23.85
2022-08-05T18:22:53.831Z,23.84
2022-08-05T18:25:23.210Z,23.70
2022-08-05T18:27:56.420Z,23.64
2022-08-05T18:30:26.221Z,23.69
2022-08-05T18:33:00.829Z,23.70
2022-08-05T18:35:59.770Z,23.67
2022-08-05T18:38:19.294Z,23.68
2022-08-05T18:41:57.517Z,23.68
2022-08-05T18:43:49.009Z,23.55
2022-08-05T18:46:19.720Z,23.59
2022-08-05T18:48:51.937Z,23.51
2022-08-05T18:52:04.148Z,23.48
2022-08-05T18:54:28.411Z,23.49
2022-08-05T18:57:00.954Z,23.50
2022-08-05T18:59:43.189Z,23.44
2022-08-05T19:02:28.061Z,23.39
2022-08-05T19:05:02.313Z,23.31
2022-08-05T19:07:48.143Z,23.28
2022-08-05T19:10:16.564Z,23.29
2022-08-05T19:12:46.241Z,23.40
2022-08-05T19:15:57.696Z,23.31
2022-08-05T19:18:09.277Z,23.28
2022-08-05T19:20:41.643Z,23.21
2022-08-05T19:24:03.621Z,23.17
2022-08-05T19:26:02.214Z,23.18
2022-08-05T19:28:32.854Z,23.11
2022-08-05T19:31:05.968Z,23.06
2022-08-05T19:33:36.789Z,23.05
2022-08-05T19:36:06.187Z,23.00
2022-08-05T19:38:35.931Z,22.97
2022-08-05T19:41:07.281Z,23.04
2022-08-05T19:44:04.624Z,23.10
2022-08-05T19:46:30.092Z,23.03
2022-08-05T19:49:02.869Z,23.08
2022-08-05T19:52:05.363Z,23.07
2022-08-05T19:54:27.166Z,23.05
2022-08-05T19:57:02.176Z,23.05
2022-08-05T19:59:54.539Z,23.04
2022-08-05T20:02:21.943Z,23.01
2022-08-05T20:04:51.433Z,22.89
2022-08-05T20:07:46.538Z,22.81
2022-08-05T20:10:11.606Z,22.88
2022-08-05T20:12:48.326Z,22.92
2022-08-05T20:15:22.964Z,22.95
2022-08-05T20:18:10.114Z,22.91
2022-08-05T20:20:57.174Z,22.96
2022-08-05T20:23:39.844Z,22.97
2022-08-05T20:26:16.010Z,22.97
2022-08-05T20:28:48.056Z,23.00
2022-08-05T20:31:16.867Z,22.97
2022-08-05T20:33:46.616Z,23.05
2022-08-05T20:36:17.882Z,23.09
2022-08-05T20:38:54.422Z,23.02
2022-08-05T20:41:44.549Z,22.94
2022-08-05T20:44:29.731Z,22.89
2022-08-05T20:46:59.834Z,22.86
2022-08-05T20:49:29.634Z,22.72
2022-08-05T20:52:01.499Z,22.63
2022-08-05T20:54:42.831Z,22.61
2022-08-05T20:57:42.694Z,22.67
2022-08-05T21:00:20.320Z,22.74
2022-08-05T21:03:00.206Z,22.76
2022-08-05T21:05:47.713Z,22.76
2022-08-05T21:08:19.553Z,22.76
2022-08-05T21:10:48.939Z,22.75
2022-08-05T21:13:26.370Z,22.71
2022-08-05T21:16:06.940Z,22.70
2022-08-05T21:18:35.951Z,22.68
2022-08-05T21:21:06.554Z,22.60
2022-08-05T21:23:37.516Z,22.56
2022-08-05T21:26:12.309Z,22.51
2022-08-05T21:28:41.097Z,22.48
2022-08-05T21:31:16.642Z,22.43
2022-08-05T21:33:47.738Z,22.36
2022-08-05T21:36:19.117Z,22.32
2022-08-05T21:38:55.755Z,22.26
2022-08-05T21:41:24.024Z,22.22
2022-08-05T21:44:01.506Z,22.19
2022-08-05T21:46:32.234Z,22.15
2022-08-05T21:49:07.426Z,22.13
2022-08-05T21:52:22.648Z,22.15
2022-08-05T21:54:27.689Z,22.09
2022-08-05T21:57:29.249Z,22.08
2022-08-05T22:00:03.312Z,22.08
2022-08-05T22:02:33.959Z,22.07
2022-08-05T22:05:02.163Z,22.15
2022-08-05T22:07:39.977Z,22.10
2022-08-05T22:10:26.658Z,22.09
2022-08-05T22:12:57.408Z,22.18
2022-08-05T22:16:01.499Z,22.15
2022-08-05T22:18:14.978Z,22.14
2022-08-05T22:20:46.993Z,22.05
2022-08-05T22:24:01.854Z,22.06
2022-08-05T22:26:49.821Z,22.05
2022-08-05T22:29:26.562Z,22.00
2022-08-05T22:31:59.496Z,22.00
2022-08-05T22:34:28.729Z,21.92
2022-08-05T22:36:58.433Z,21.90
2022-08-05T22:39:32.951Z,21.86
2022-08-05T22:42:09.773Z,21.87
2022-08-05T22:44:42.616Z,21.86
2022-08-05T22:47:29.596Z,21.89
2022-08-05T22:50:20.156Z,21.91
2022-08-05T22:52:49.052Z,21.96
2022-08-05T22:55:21.387Z,21.97
2022-08-05T22:57:50.615Z,22.06
2022-08-05T23:00:20.815Z,22.02
2022-08-05T23:02:49.716Z,22.10
2022-08-05T23:05:19.212Z,22.10
2022-08-05T23:07:50.863Z,22.20
2022-08-05T23:10:24.012Z,22.25
2022-08-05T23:12:55.183Z,22.26
2022-08-05T23:15:27.080Z,22.23
2022-08-05T23:18:01.314Z,22.13
2022-08-05T23:20:31.135Z,22.10
2022-08-05T23:22:59.320Z,22.12
2022-08-05T23:25:51.503Z,22.21
2022-08-05T23:28:17.704Z,22.36
2022-08-05T23:30:53.608Z,22.39
2022-08-05T23:34:02.655Z,22.31
2022-08-05T23:36:11.004Z,22.18
2022-08-05T23:38:43.010Z,22.19
2022-08-05T23:41:14.072Z,22.27
2022-08-05T23:44:08.551Z,22.26
2022-08-05T23:46:31.559Z,22.32
2022-08-05T23:49:02.168Z,22.30
2022-08-05T23:52:02.872Z,22.33
2022-08-05T23:54:38.478Z,22.36
2022-08-05T23:57:09.015Z,22.39
